Terminal Aerodrome Forecast
Issued by NWS Wilmington, OH

Current Version | Previous Version | Graphics & Text | Print | Product List | Glossary On
Versions: 1 2 3 4 5 6 7 8 9 10 11 12 13 14 15 16 17
000
FTUS41 KILN 292134 AAA
TAFCMH
TAF AMD
KCMH 292134Z 2922/3018 27008KT P6SM VCTS BKN035CB
      TEMPO 2922/2923 25010G20KT 3SM -TSRA BR BKN025CB
     FM300000 29007KT P6SM SCT090 SCT120
     FM300600 34006KT P6SM SCT020
     FM301400 31007KT P6SM FEW035=

USA.gov is the U.S. government's official web portal to all federal, state and local government web resources and services.